Latest Coastal Weather Observations for Frankston

IDV60701

Issued at 5:02 am EDT Saturday 21 October 2017 (issued every 10 minutes, with the page automatically refreshed every 10 minutes)

About coastal observations | Map of coastal stations | Coastal observations for VIC | Marine services | Other Formats
Station Details ID: 086371 Name: FRANKSTON AWS Lat: -38.15 Lon: 145.12 Height: 6.0 m
Data from the previous 72 hours. | See also: Recent months at Frankston
Date/Time
EDT
Temp
°C
Wind Pressure Rain since
9am
mm
Weather Cloud Vis
km
Sea
Height
m
Swell
Dir  Spd
kts
Gust
kts
hPa Trend Height
m
Period
s
Dir
21/05:00am 11.6 S 2 3 - - - - - - - - - -
21/04:30am 11.6 SSW 4 7 - - - - - - - - - -
21/04:00am 11.6 SSW 5 6 - - - - - - - - - -
21/03:30am 11.6 S 3 6 - - - - - - - - - -
21/03:00am 11.6 SSW 3 5 - - - - - - - - - -
21/02:30am 11.6 SSW 2 3 - - - - - - - - - -
21/02:00am 11.6 SSW 2 3 - - - - - - - - - -
21/01:30am 11.7 SSW 3 5 - - - - - - - - - -
21/01:00am 11.8 SSW 3 6 - - - - - - - - - -
21/12:30am 11.8 SW 4 6 - - - - - - - - - -
21/12:00am 11.9 SW 5 8 - - - - - - - - - -
 
Date/Time
EDT
Temp
°C
Wind Pressure Rain since
9am
mm
Weather Cloud Vis
km
Sea
Height
m
Swell
Dir  Spd
kts
Gust
kts
hPa Trend Height
m
Period
s
Dir
20/11:30pm 12.0 SSW 5 8 - - - - - - - - - -
20/11:00pm 12.0 SW 4 6 - - - - - - - - - -
20/10:30pm 12.0 SSW 4 7 - - - - - - - - - -
20/10:00pm 12.1 SSW 3 5 - - - - - - - - - -
20/09:30pm 12.1 SW 6 12 - - - - - - - - - -
20/09:00pm 12.2 SSW 6 10 - - - - - - - - - -
20/08:30pm 12.4 SSW 6 9 - - - - - - - - - -
20/08:00pm 12.2 SSW 5 9 - - - - - - - - - -
20/07:30pm 12.4 SW 8 13 - - - - - - - - - -
20/07:00pm 13.2 SSW 6 11 - - - - - - - - - -
20/06:30pm 13.3 SSW 8 14 - - - - - - - - - -
20/06:00pm 13.5 SSW 7 13 - - - - - - - - - -
20/05:30pm 13.9 SW 9 14 - - - - - - - - - -
20/05:00pm 13.5 WSW 16 21 - - - - - - - - - -
20/04:30pm 13.4 WSW 17 20 - - - - - - - - - -
20/04:00pm 13.3 WSW 16 19 - - - - - - - - - -
20/03:30pm 13.4 WSW 13 21 - - - - - - - - - -
20/03:00pm 14.4 SSW 10 18 - - - - - - - - - -
20/02:30pm 14.1 WSW 15 23 - - - - - - - - - -
20/02:00pm 13.5 WSW 17 20 - - - - - - - - - -
20/01:30pm 13.7 WSW 16 18 - - - - - - - - - -
20/01:00pm 13.7 WSW 15 19 - - - - - - - - - -
20/12:30pm 14.1 SW 10 17 - - - - - - - - - -
20/12:00pm 14.1 SSW 6 11 - - - - - - - - - -
20/11:30am 13.6 SW 9 12 - - - - - - - - - -
20/11:00am 13.2 SSW 10 17 - - - - - - - - - -
20/10:30am 13.4 WSW 10 18 - - - - - - - - - -
20/10:00am 13.6 SW 10 14 - - - - - - - - - -
20/09:30am 13.1 WSW 12 15 - - - - - - - - - -
20/09:00am 13.6 SW 7 12 - - - - - - - - - -
20/08:30am 13.0 SSW 6 10 - - - - - - - - - -
20/08:00am 12.3 SSW 5 8 - - - - - - - - - -
20/07:30am 11.9 SSW 4 7 - - - - - - - - - -
20/07:00am 11.8 SSW 5 8 - - - - - - - - - -
20/06:30am 12.0 SSW 6 10 - - - - - - - - - -
20/06:00am 12.5 SSW 9 13 - - - - - - - - - -
20/05:30am 13.2 SW 12 18 - - - - - - - - - -
20/05:00am 13.5 SW 13 20 - - - - - - - - - -
20/04:30am 13.1 W 13 15 - - - - - - - - - -
20/04:00am 13.4 W 13 15 - - - - - - - - - -
20/03:30am 13.4 W 12 15 - - - - - - - - - -
20/03:00am 13.6 WNW 9 11 - - - - - - - - - -
20/02:30am 13.7 W 12 14 - - - - - - - - - -
20/02:00am 13.9 W 11 13 - - - - - - - - - -
20/01:30am 14.2 W 11 14 - - - - - - - - - -
20/01:00am 14.2 WNW 12 15 - - - - - - - - - -
20/12:30am 14.7 W 9 11 - - - - - - - - - -
20/12:00am 14.9 W 11 14 - - - - - - - - - -
 
Date/Time
EDT
Temp
°C
Wind Pressure Rain since
9am
mm
Weather Cloud Vis
km
Sea
Height
m
Swell
Dir  Spd
kts
Gust
kts
hPa Trend Height
m
Period
s
Dir
19/11:30pm 14.5 W 9 12 - - - - - - - - - -
19/11:00pm 14.0 S 3 5 - - - - - - - - - -
19/10:30pm 13.9 SSE 2 3 - - - - - - - - - -
19/10:00pm 13.9 SSW 3 5 - - - - - - - - - -
19/09:30pm 14.1 S 4 6 - - - - - - - - - -
19/09:00pm 14.4 SW 5 7 - - - - - - - - - -
19/08:30pm 14.6 SW 7 11 - - - - - - - - - -
19/08:00pm 14.8 SW 9 15 - - - - - - - - - -
19/07:30pm 14.8 SW 11 18 - - - - - - - - - -
19/07:00pm 15.1 SW 8 17 - - - - - - - - - -
19/06:30pm 15.6 SW 16 21 - - - - - - - - - -
19/06:00pm 16.1 SW 16 21 - - - - - - - - - -
19/05:30pm 16.4 SW 13 20 - - - - - - - - - -
19/05:00pm 17.1 SW 15 23 - - - - - - - - - -
19/04:30pm 17.9 SW 17 22 - - - - - - - - - -
19/04:15pm 18.4 WSW 11 30 - - - - - - - - - -
19/04:00pm 19.6 WSW 7 9 - - - - - - - - - -
19/03:30pm 20.0 WSW 8 10 - - - - - - - - - -
19/03:00pm 19.6 WSW 8 12 - - - - - - - - - -
19/02:30pm 19.7 WSW 7 8 - - - - - - - - - -
19/02:00pm 19.4 CALM 0 0 - - - - - - - - - -
19/01:30pm 19.3 NW 2 3 - - - - - - - - - -
19/01:00pm 19.1 N 3 3 - - - - - - - - - -
19/12:30pm 18.9 CALM 0 0 - - - - - - - - - -
19/12:00pm 18.7 CALM 0 0 - - - - - - - - - -
19/11:30am 18.4 CALM 0 0 - - - - - - - - - -
19/11:00am 19.0 SSW 3 7 - - - - - - - - - -
19/10:30am 19.4 SW 7 10 - - - - - - - - - -
19/10:00am 18.0 SW 13 18 - - - - - - - - - -
19/09:30am 17.2 WSW 12 14 - - - - - - - - - -
19/09:00am 18.1 WSW 15 18 - - - - - - - - - -
19/08:30am 19.6 WSW 12 18 - - - - - - - - - -
19/08:00am 20.0 W 10 12 - - - - - - - - - -
19/07:30am 19.3 WSW 15 19 - - - - - - - - - -
19/07:00am 20.4 WSW 11 13 - - - - - - - - - -
19/06:30am 20.4 WSW 9 11 - - - - - - - - - -
19/06:00am 20.8 WSW 6 10 - - - - - - - - - -
19/05:30am 22.1 CALM 0 2 - - - - - - - - - -
19/05:00am 23.2 N 7 10 - - - - - - - - - -
19/04:30am 23.3 N 7 10 - - - - - - - - - -
19/04:00am 23.8 NNE 8 11 - - - - - - - - - -
19/03:30am 24.3 NE 7 13 - - - - - - - - - -
19/03:00am 24.3 NE 7 13 - - - - - - - - - -
19/02:30am 23.9 NE 6 12 - - - - - - - - - -
19/02:00am 24.0 NE 7 13 - - - - - - - - - -
19/01:30am 23.7 NE 5 8 - - - - - - - - - -
19/01:00am 23.2 ENE 5 8 - - - - - - - - - -
19/12:30am 23.4 E 5 9 - - - - - - - - - -
19/12:00am 23.4 E 4 6 - - - - - - - - - -
 
Date/Time
EDT
Temp
°C
Wind Pressure Rain since
9am
mm
Weather Cloud Vis
km
Sea
Height
m
Swell
Dir  Spd
kts
Gust
kts
hPa Trend Height
m
Period
s
Dir
18/11:30pm 23.7 E 4 5 - - - - - - - - - -
18/11:00pm 24.8 ENE 5 9 - - - - - - - - - -
18/10:30pm 25.4 NE 5 8 - - - - - - - - - -
18/10:00pm 25.5 ENE 4 7 - - - - - - - - - -
18/09:30pm 26.2 ENE 4 7 - - - - - - - - - -
18/09:00pm 26.7 NNE 4 6 - - - - - - - - - -
18/08:30pm 27.4 NE 4 7 - - - - - - - - - -
18/08:00pm 27.6 NE 4 8 - - - - - - - - - -
18/07:30pm 24.0 NNE 7 9 - - - - - - - - - -
18/07:00pm 24.8 N 11 13 - - - - - - - - - -
18/06:30pm 28.6 NNE 13 17 - - - - - - - - - -
18/06:00pm 28.9 N 9 16 - - - - - - - - - -
18/05:30pm 24.6 NNW 2 5 - - - - - - - - - -
18/05:00pm 24.4 WNW 2 3 - - - - - - - - - -
18/04:30pm 23.7 WNW 3 7 - - - - - - - - - -
18/04:00pm 23.0 WNW 2 8 - - - - - - - - - -
18/03:30pm 22.4 NW 4 5 - - - - - - - - - -
18/03:00pm 21.3 WSW 3 5 - - - - - - - - - -
18/02:30pm 22.1 NW 8 8 - - - - - - - - - -
18/02:00pm 23.4 NNW 8 9 - - - - - - - - - -
18/01:30pm 22.2 NW 4 6 - - - - - - - - - -
18/01:00pm 21.2 NW 5 7 - - - - - - - - - -
18/12:30pm 22.3 NNW 7 9 - - - - - - - - - -
18/12:00pm 22.4 N 7 8 - - - - - - - - - -
18/11:30am 21.4 N 9 11 - - - - - - - - - -
18/11:00am 21.4 N 8 10 - - - - - - - - - -
18/10:30am 21.9 N 9 12 - - - - - - - - - -
18/10:00am 21.6 N 11 13 - - - - - - - - - -
18/09:30am 21.6 NNE 9 12 - - - - - - - - - -
18/09:00am 20.1 N 2 4 - - - - - - - - - -
18/08:30am 21.4 NNE 3 5 - - - - - - - - - -
18/08:00am 20.9 NE 3 6 - - - - - - - - - -
18/07:30am 19.9 ENE 2 4 - - - - - - - - - -
18/07:00am 19.1 ENE 4 6 - - - - - - - - - -
18/06:30am 18.0 E 2 4 - - - - - - - - - -
18/06:00am 18.2 E 4 7 - - - - - - - - - -
18/05:30am 18.6 ESE 3 4 - - - - - - - - - -

Other Formats:

Comma delimited format used in spreadsheet applications
http://www.bom.gov.au/fwo/IDV60701/IDV60701.94871.axf

JavaScript Object Notation format (JSON) in row-major order
http://www.bom.gov.au/fwo/IDV60701/IDV60701.94871.json